Flight Track Log - Related Links

Times and Time Zones

All times are in EDT time to prevent confusion due to time zone crossing. See the GGA1 flight status page for this flight to view local times or setup timezone preferences in your user account.

Time Position Orientation Groundspeed Altitude Reporting Facility
EDT Latitude Longitude Course Direction KTS MPH feet Rate Location/Type
Tue 08:11:48 AM 33.9333 -83.3500 157° South 182 209 1,800  Level Atlanta TRACON
Tue 08:13:05 AM 33.8903 -83.3281 157° South 163 188 3,500 1,577 Climbing Atlanta Center
Tue 08:14:05 AM 33.8650 -83.2883 127° Southeast 158 182 5,400 1,850 Climbing Atlanta Center
Tue 08:15:05 AM 33.8356 -83.2511 134° Southeast 153 176 7,200 1,800 Climbing Atlanta Center
Tue 08:16:05 AM 33.8039 -83.2114 134° Southeast 153 176 9,000 1,750 Climbing Atlanta Center
Tue 08:17:05 AM 33.7744 -83.1742 134° Southeast 153 176 10,700 1,650 Climbing Atlanta Center
Tue 08:18:05 AM 33.7386 -83.1294 134° Southeast 158 182 12,300 1,500 Climbing Atlanta Center
Tue 08:19:05 AM 33.7028 -83.0875 136° Southeast 175 201 13,700 1,300 Climbing Atlanta Center
Tue 08:20:05 AM 33.6650 -83.0431 136° Southeast 182 209 14,900 650 Climbing Atlanta Center
Tue 08:21:05 AM 33.6186 -82.9886 136° Southeast 205 236 15,000 50 Climbing Atlanta Center
Tue 08:22:05 AM 33.5617 -82.9169 134° Southeast 249 287 15,000  Level Atlanta Center
Tue 08:23:05 AM 33.5089 -82.8503 134° Southeast 266 306 15,000  Level Atlanta Center
Tue 08:24:05 AM 33.4539 -82.7864 136° Southeast 272 313 15,000  Level Atlanta Center
Tue 08:25:05 AM 33.4011 -82.7200 134° Southeast 277 319 15,000  Level Atlanta Center
Tue 08:26:05 AM 33.3461 -82.6536 135° Southeast 277 319 15,000  Level Atlanta Center
Tue 08:27:05 AM 33.2931 -82.5900 135° Southeast 277 319 15,000  Level Atlanta Center
Tue 08:28:05 AM 33.2400 -82.5261 135° Southeast 277 319 15,000  Level Atlanta Center
Tue 08:29:05 AM 33.1872 -82.4603 134° Southeast 277 319 15,000  Level Atlanta Center
Tue 08:30:05 AM 33.1361 -82.3967 134° Southeast 277 319 15,000  Level Atlanta Center
Tue 08:31:05 AM 33.0789 -82.3308 136° Southeast 277 319 15,000  Level Atlanta Center
Tue 08:32:05 AM 33.0258 -82.2672 135° Southeast 277 319 15,000  Level Atlanta Center
Tue 08:33:05 AM 32.9747 -82.2039 134° Southeast 277 319 15,000 -330 Level Atlanta Center
Tue 08:35:07 AM 32.8694 -82.0789 135° Southeast 278 320 14,000 -593 Descending Jacksonville Center
Tue 08:36:07 AM 32.8106 -82.0078 135° Southeast 288 331 13,200 -800 Descending Jacksonville Center
Tue 08:37:07 AM 32.7536 -81.9392 135° Southeast 288 331 12,400 -850 Descending Jacksonville Center
Tue 08:38:07 AM 32.6989 -81.8706 133° Southeast 288 331 11,500 -700 Descending Jacksonville Center
Tue 08:39:07 AM 32.6400 -81.8047 137° Southeast 288 331 11,000 -250 Descending Jacksonville Center
Tue 08:40:07 AM 32.5808 -81.7364 136° Southeast 277 319 11,000 -200 Level Jacksonville Center
Tue 08:41:07 AM 32.5344 -81.6803 134° Southeast 271 312 10,600 -600 Descending Jacksonville Center
Tue 08:42:07 AM 32.4775 -81.6144 136° Southeast 279 321 9,800 -1,000 Descending Jacksonville Center
Tue 08:43:07 AM 32.4183 -81.5464 136° Southeast 279 321 8,600 -1,300 Descending Jacksonville Center
Tue 08:44:07 AM 32.3572 -81.4931 144° Southeast 273 314 7,200 -1,750 Descending Jacksonville Center
Tue 08:45:07 AM 32.3022 -81.4472 145° Southeast 273 314 5,100 -2,100 Descending Jacksonville Center
Tue 08:46:07 AM 32.2392 -81.3944 145° Southeast 266 306 3,000 -1,550 Descending Jacksonville Center
Tue 08:47:07 AM 32.1864 -81.3533 147° Southeast 255 293 2,000 -550 Descending Jacksonville Center
Tue 08:48:07 AM 32.1364 -81.3494 176° South 197 227 1,900 -50 Descending Jacksonville Center
Tue 08:49:07 AM 32.1272 -81.3053 104° East 132 152 1,900  Level Jacksonville Center
Tue 08:51:00 AM 32.1167 -81.2000 North  Level FlightAware Approximate
Tue 08:58:00 AM 32.1276 -81.2021 North  Level Estimated
Tue 08:59:00 AM 32.1276 -81.2021 North  Level Estimated
Tue 09:00:00 AM 32.1276 -81.2021 North  Level Estimated

Login

Don't have an account? Register now (free) for customized features, flight alerts, and more!